sensor_id;sensor_type;location;lat;lon;timestamp;P1;durP1;ratioP1;P2;durP2;ratioP2
65009;SDS011;51556;50.002;22.014;2024-01-10T00:00:12;326.00;;;101.50;;
65009;SDS011;51556;50.002;22.014;2024-01-10T00:02:37;337.60;;;102.50;;
65009;SDS011;51556;50.002;22.014;2024-01-10T00:05:03;326.50;;;98.80;;
65009;SDS011;51556;50.002;22.014;2024-01-10T00:07:29;323.40;;;97.10;;
65009;SDS011;51556;50.002;22.014;2024-01-10T00:09:54;318.50;;;93.20;;
65009;SDS011;51556;50.002;22.014;2024-01-10T00:12:21;291.50;;;87.30;;
65009;SDS011;51556;50.002;22.014;2024-01-10T00:14:46;297.70;;;90.30;;
65009;SDS011;51556;50.002;22.014;2024-01-10T00:17:11;296.40;;;90.90;;
65009;SDS011;51556;50.002;22.014;2024-01-10T00:19:37;306.60;;;86.00;;
65009;SDS011;51556;50.002;22.014;2024-01-10T00:22:02;294.60;;;94.50;;
65009;SDS011;51556;50.002;22.014;2024-01-10T00:24:28;272.50;;;80.80;;
65009;SDS011;51556;50.002;22.014;2024-01-10T00:26:53;240.30;;;73.20;;
65009;SDS011;51556;50.002;22.014;2024-01-10T00:29:19;229.00;;;68.70;;
65009;SDS011;51556;50.002;22.014;2024-01-10T00:31:45;286.40;;;85.10;;
65009;SDS011;51556;50.002;22.014;2024-01-10T00:34:10;290.30;;;87.40;;
65009;SDS011;51556;50.002;22.014;2024-01-10T00:36:35;276.90;;;80.90;;
65009;SDS011;51556;50.002;22.014;2024-01-10T00:39:01;271.80;;;78.40;;
65009;SDS011;51556;50.002;22.014;2024-01-10T00:41:26;262.40;;;74.50;;
65009;SDS011;51556;50.002;22.014;2024-01-10T00:43:52;260.60;;;79.00;;
65009;SDS011;51556;50.002;22.014;2024-01-10T00:46:18;260.10;;;77.20;;
65009;SDS011;51556;50.002;22.014;2024-01-10T00:48:43;230.20;;;70.10;;
65009;SDS011;51556;50.002;22.014;2024-01-10T00:51:09;232.70;;;69.70;;
65009;SDS011;51556;50.002;22.014;2024-01-10T00:53:35;251.60;;;73.60;;
65009;SDS011;51556;50.002;22.014;2024-01-10T00:56:00;225.40;;;71.00;;
65009;SDS011;51556;50.002;22.014;2024-01-10T00:58:26;209.20;;;65.00;;
65009;SDS011;51556;50.002;22.014;2024-01-10T01:00:51;235.70;;;71.80;;
65009;SDS011;51556;50.002;22.014;2024-01-10T01:03:17;226.30;;;71.60;;
65009;SDS011;51556;50.002;22.014;2024-01-10T01:05:42;234.20;;;70.30;;
65009;SDS011;51556;50.002;22.014;2024-01-10T01:08:07;240.70;;;74.10;;
65009;SDS011;51556;50.002;22.014;2024-01-10T01:10:33;246.30;;;71.10;;
65009;SDS011;51556;50.002;22.014;2024-01-10T01:12:59;251.50;;;76.00;;
65009;SDS011;51556;50.002;22.014;2024-01-10T01:15:24;235.50;;;70.80;;
65009;SDS011;51556;50.002;22.014;2024-01-10T01:17:50;267.50;;;78.70;;
65009;SDS011;51556;50.002;22.014;2024-01-10T01:20:15;250.40;;;74.20;;
65009;SDS011;51556;50.002;22.014;2024-01-10T01:22:40;252.20;;;71.40;;
65009;SDS011;51556;50.002;22.014;2024-01-10T01:25:06;244.10;;;74.80;;
65009;SDS011;51556;50.002;22.014;2024-01-10T01:27:31;254.60;;;72.60;;
65009;SDS011;51556;50.002;22.014;2024-01-10T01:29:57;233.60;;;68.20;;
65009;SDS011;51556;50.002;22.014;2024-01-10T01:32:22;236.10;;;71.30;;
65009;SDS011;51556;50.002;22.014;2024-01-10T01:34:48;243.80;;;71.10;;
65009;SDS011;51556;50.002;22.014;2024-01-10T01:37:13;228.00;;;69.60;;
65009;SDS011;51556;50.002;22.014;2024-01-10T01:39:38;215.50;;;67.60;;
65009;SDS011;51556;50.002;22.014;2024-01-10T01:42:04;215.50;;;64.20;;
65009;SDS011;51556;50.002;22.014;2024-01-10T01:44:29;235.20;;;69.30;;
65009;SDS011;51556;50.002;22.014;2024-01-10T01:46:57;196.80;;;62.60;;
65009;SDS011;51556;50.002;22.014;2024-01-10T01:49:22;197.30;;;60.70;;
65009;SDS011;51556;50.002;22.014;2024-01-10T01:51:50;216.90;;;67.10;;
65009;SDS011;51556;50.002;22.014;2024-01-10T01:54:17;142.40;;;45.80;;
65009;SDS011;51556;50.002;22.014;2024-01-10T01:56:43;222.10;;;68.90;;
65009;SDS011;51556;50.002;22.014;2024-01-10T01:59:09;238.60;;;69.70;;
65009;SDS011;51556;50.002;22.014;2024-01-10T02:01:36;205.60;;;69.00;;
65009;SDS011;51556;50.002;22.014;2024-01-10T02:04:02;241.20;;;67.00;;
65009;SDS011;51556;50.002;22.014;2024-01-10T02:06:28;243.60;;;72.90;;
65009;SDS011;51556;50.002;22.014;2024-01-10T02:08:55;237.80;;;72.30;;
65009;SDS011;51556;50.002;22.014;2024-01-10T02:11:21;252.50;;;71.90;;
65009;SDS011;51556;50.002;22.014;2024-01-10T02:13:48;226.80;;;68.00;;
65009;SDS011;51556;50.002;22.014;2024-01-10T02:16:14;227.10;;;66.30;;
65009;SDS011;51556;50.002;22.014;2024-01-10T02:18:40;208.80;;;64.80;;
65009;SDS011;51556;50.002;22.014;2024-01-10T02:21:05;209.90;;;65.00;;
65009;SDS011;51556;50.002;22.014;2024-01-10T02:23:30;207.70;;;66.90;;
65009;SDS011;51556;50.002;22.014;2024-01-10T02:25:56;213.10;;;65.80;;
65009;SDS011;51556;50.002;22.014;2024-01-10T02:28:22;181.20;;;57.60;;
65009;SDS011;51556;50.002;22.014;2024-01-10T02:30:49;217.20;;;64.60;;
65009;SDS011;51556;50.002;22.014;2024-01-10T02:33:16;213.30;;;66.10;;
65009;SDS011;51556;50.002;22.014;2024-01-10T02:35:41;206.10;;;64.60;;
65009;SDS011;51556;50.002;22.014;2024-01-10T02:38:07;205.90;;;60.40;;
65009;SDS011;51556;50.002;22.014;2024-01-10T02:40:32;191.10;;;62.80;;
65009;SDS011;51556;50.002;22.014;2024-01-10T02:42:57;172.60;;;54.00;;
65009;SDS011;51556;50.002;22.014;2024-01-10T02:45:23;191.30;;;63.00;;
65009;SDS011;51556;50.002;22.014;2024-01-10T02:47:48;199.20;;;60.90;;
65009;SDS011;51556;50.002;22.014;2024-01-10T02:50:14;183.70;;;59.60;;
65009;SDS011;51556;50.002;22.014;2024-01-10T02:52:39;202.30;;;57.20;;
65009;SDS011;51556;50.002;22.014;2024-01-10T02:55:04;182.90;;;55.30;;
65009;SDS011;51556;50.002;22.014;2024-01-10T02:57:30;190.70;;;57.60;;
65009;SDS011;51556;50.002;22.014;2024-01-10T02:59:55;193.00;;;57.80;;
65009;SDS011;51556;50.002;22.014;2024-01-10T03:02:21;190.10;;;58.00;;
65009;SDS011;51556;50.002;22.014;2024-01-10T03:04:48;193.50;;;61.40;;
65009;SDS011;51556;50.002;22.014;2024-01-10T03:07:14;190.20;;;57.50;;
65009;SDS011;51556;50.002;22.014;2024-01-10T03:09:39;197.40;;;59.10;;
65009;SDS011;51556;50.002;22.014;2024-01-10T03:12:05;190.20;;;60.10;;
65009;SDS011;51556;50.002;22.014;2024-01-10T03:14:30;192.60;;;59.40;;
65009;SDS011;51556;50.002;22.014;2024-01-10T03:16:57;176.90;;;55.00;;
65009;SDS011;51556;50.002;22.014;2024-01-10T03:19:23;182.10;;;55.00;;
65009;SDS011;51556;50.002;22.014;2024-01-10T03:21:48;171.90;;;52.90;;
65009;SDS011;51556;50.002;22.014;2024-01-10T03:24:13;184.00;;;55.40;;
65009;SDS011;51556;50.002;22.014;2024-01-10T03:26:39;146.00;;;48.80;;
65009;SDS011;51556;50.002;22.014;2024-01-10T03:29:04;176.30;;;52.10;;
65009;SDS011;51556;50.002;22.014;2024-01-10T03:31:30;175.10;;;52.00;;
65009;SDS011;51556;50.002;22.014;2024-01-10T03:33:56;169.40;;;52.60;;
65009;SDS011;51556;50.002;22.014;2024-01-10T03:36:23;180.80;;;52.90;;
65009;SDS011;51556;50.002;22.014;2024-01-10T03:38:48;169.50;;;52.80;;
65009;SDS011;51556;50.002;22.014;2024-01-10T03:41:14;181.00;;;55.40;;
65009;SDS011;51556;50.002;22.014;2024-01-10T03:43:40;191.30;;;57.20;;
65009;SDS011;51556;50.002;22.014;2024-01-10T03:46:06;210.00;;;62.30;;
65009;SDS011;51556;50.002;22.014;2024-01-10T03:48:31;166.90;;;51.10;;
65009;SDS011;51556;50.002;22.014;2024-01-10T03:50:56;204.50;;;57.80;;
65009;SDS011;51556;50.002;22.014;2024-01-10T03:53:22;113.90;;;39.60;;
65009;SDS011;51556;50.002;22.014;2024-01-10T03:55:47;176.00;;;53.60;;
65009;SDS011;51556;50.002;22.014;2024-01-10T03:58:13;165.20;;;50.30;;
65009;SDS011;51556;50.002;22.014;2024-01-10T04:00:38;159.90;;;49.10;;
65009;SDS011;51556;50.002;22.014;2024-01-10T04:03:03;123.20;;;44.80;;
65009;SDS011;51556;50.002;22.014;2024-01-10T04:05:29;175.70;;;49.70;;
65009;SDS011;51556;50.002;22.014;2024-01-10T04:07:54;172.50;;;54.20;;
65009;SDS011;51556;50.002;22.014;2024-01-10T04:10:22;143.30;;;42.70;;
65009;SDS011;51556;50.002;22.014;2024-01-10T04:12:47;129.90;;;42.50;;
65009;SDS011;51556;50.002;22.014;2024-01-10T04:15:13;173.20;;;51.90;;
65009;SDS011;51556;50.002;22.014;2024-01-10T04:17:38;169.90;;;50.00;;
65009;SDS011;51556;50.002;22.014;2024-01-10T04:20:04;157.40;;;49.50;;
65009;SDS011;51556;50.002;22.014;2024-01-10T04:22:30;164.90;;;52.10;;
65009;SDS011;51556;50.002;22.014;2024-01-10T04:24:59;169.30;;;49.70;;
65009;SDS011;51556;50.002;22.014;2024-01-10T04:27:25;162.70;;;49.70;;
65009;SDS011;51556;50.002;22.014;2024-01-10T04:29:51;153.60;;;47.90;;
65009;SDS011;51556;50.002;22.014;2024-01-10T04:32:17;160.30;;;52.30;;
65009;SDS011;51556;50.002;22.014;2024-01-10T04:34:43;164.00;;;51.30;;
65009;SDS011;51556;50.002;22.014;2024-01-10T04:37:08;156.50;;;48.50;;
65009;SDS011;51556;50.002;22.014;2024-01-10T04:39:34;112.20;;;35.10;;
65009;SDS011;51556;50.002;22.014;2024-01-10T04:41:59;176.70;;;51.40;;
65009;SDS011;51556;50.002;22.014;2024-01-10T04:44:25;150.80;;;47.30;;
65009;SDS011;51556;50.002;22.014;2024-01-10T04:46:50;158.20;;;46.10;;
65009;SDS011;51556;50.002;22.014;2024-01-10T04:49:16;158.70;;;47.80;;
65009;SDS011;51556;50.002;22.014;2024-01-10T04:51:41;154.60;;;46.60;;
65009;SDS011;51556;50.002;22.014;2024-01-10T04:54:07;139.50;;;45.80;;
65009;SDS011;51556;50.002;22.014;2024-01-10T04:56:33;138.30;;;45.50;;
65009;SDS011;51556;50.002;22.014;2024-01-10T04:59:01;154.70;;;48.40;;
65009;SDS011;51556;50.002;22.014;2024-01-10T05:01:26;153.90;;;47.60;;
65009;SDS011;51556;50.002;22.014;2024-01-10T05:03:52;141.80;;;48.70;;
65009;SDS011;51556;50.002;22.014;2024-01-10T05:06:17;147.50;;;47.20;;
65009;SDS011;51556;50.002;22.014;2024-01-10T05:08:43;149.60;;;47.80;;
65009;SDS011;51556;50.002;22.014;2024-01-10T05:11:08;149.70;;;46.20;;
65009;SDS011;51556;50.002;22.014;2024-01-10T05:13:34;161.70;;;49.00;;
65009;SDS011;51556;50.002;22.014;2024-01-10T05:15:59;156.80;;;48.00;;
65009;SDS011;51556;50.002;22.014;2024-01-10T05:18:25;141.70;;;46.60;;
65009;SDS011;51556;50.002;22.014;2024-01-10T05:20:50;129.40;;;45.10;;
65009;SDS011;51556;50.002;22.014;2024-01-10T05:23:16;155.60;;;49.60;;
65009;SDS011;51556;50.002;22.014;2024-01-10T05:25:41;149.30;;;48.10;;
65009;SDS011;51556;50.002;22.014;2024-01-10T05:28:06;142.40;;;48.70;;
65009;SDS011;51556;50.002;22.014;2024-01-10T05:30:32;149.40;;;46.60;;
65009;SDS011;51556;50.002;22.014;2024-01-10T05:32:57;140.20;;;46.50;;
65009;SDS011;51556;50.002;22.014;2024-01-10T05:35:26;140.20;;;46.10;;
65009;SDS011;51556;50.002;22.014;2024-01-10T05:37:52;154.10;;;46.10;;
65009;SDS011;51556;50.002;22.014;2024-01-10T05:40:18;129.50;;;41.30;;
65009;SDS011;51556;50.002;22.014;2024-01-10T05:42:44;132.60;;;44.80;;
65009;SDS011;51556;50.002;22.014;2024-01-10T05:45:09;142.50;;;48.80;;
65009;SDS011;51556;50.002;22.014;2024-01-10T05:47:35;156.10;;;44.70;;
65009;SDS011;51556;50.002;22.014;2024-01-10T05:50:01;136.40;;;45.80;;
65009;SDS011;51556;50.002;22.014;2024-01-10T05:52:27;142.90;;;43.80;;
65009;SDS011;51556;50.002;22.014;2024-01-10T05:54:52;159.50;;;48.60;;
65009;SDS011;51556;50.002;22.014;2024-01-10T05:57:18;153.40;;;48.70;;
65009;SDS011;51556;50.002;22.014;2024-01-10T05:59:44;143.10;;;43.60;;
65009;SDS011;51556;50.002;22.014;2024-01-10T06:02:09;152.20;;;48.90;;
65009;SDS011;51556;50.002;22.014;2024-01-10T06:04:35;155.80;;;47.60;;
65009;SDS011;51556;50.002;22.014;2024-01-10T06:07:00;176.00;;;51.60;;
65009;SDS011;51556;50.002;22.014;2024-01-10T06:09:26;177.10;;;55.60;;
65009;SDS011;51556;50.002;22.014;2024-01-10T06:11:51;159.40;;;53.70;;
65009;SDS011;51556;50.002;22.014;2024-01-10T06:14:17;173.80;;;54.30;;
65009;SDS011;51556;50.002;22.014;2024-01-10T06:16:43;180.60;;;58.00;;
65009;SDS011;51556;50.002;22.014;2024-01-10T06:19:10;177.10;;;56.70;;
65009;SDS011;51556;50.002;22.014;2024-01-10T06:21:36;127.80;;;40.60;;
65009;SDS011;51556;50.002;22.014;2024-01-10T06:24:02;174.60;;;53.90;;
65009;SDS011;51556;50.002;22.014;2024-01-10T06:26:27;162.70;;;52.70;;
65009;SDS011;51556;50.002;22.014;2024-01-10T06:28:53;183.80;;;53.00;;
65009;SDS011;51556;50.002;22.014;2024-01-10T06:31:18;162.40;;;51.10;;
65009;SDS011;51556;50.002;22.014;2024-01-10T06:33:45;162.70;;;51.60;;
65009;SDS011;51556;50.002;22.014;2024-01-10T06:36:10;156.70;;;52.10;;
65009;SDS011;51556;50.002;22.014;2024-01-10T06:38:36;169.00;;;56.00;;
65009;SDS011;51556;50.002;22.014;2024-01-10T06:41:07;182.90;;;55.50;;
65009;SDS011;51556;50.002;22.014;2024-01-10T06:43:38;167.90;;;53.10;;
65009;SDS011;51556;50.002;22.014;2024-01-10T06:46:04;169.50;;;52.40;;
65009;SDS011;51556;50.002;22.014;2024-01-10T06:48:29;187.60;;;58.80;;
65009;SDS011;51556;50.002;22.014;2024-01-10T06:50:56;193.10;;;60.30;;
65009;SDS011;51556;50.002;22.014;2024-01-10T06:53:22;194.10;;;60.70;;
65009;SDS011;51556;50.002;22.014;2024-01-10T06:55:47;203.50;;;63.00;;
65009;SDS011;51556;50.002;22.014;2024-01-10T06:58:13;161.00;;;50.50;;
65009;SDS011;51556;50.002;22.014;2024-01-10T07:00:38;210.80;;;61.70;;
65009;SDS011;51556;50.002;22.014;2024-01-10T07:03:04;188.00;;;60.50;;
65009;SDS011;51556;50.002;22.014;2024-01-10T07:05:30;188.20;;;60.10;;
65009;SDS011;51556;50.002;22.014;2024-01-10T07:07:59;195.40;;;59.20;;
65009;SDS011;51556;50.002;22.014;2024-01-10T07:10:28;188.50;;;60.20;;
65009;SDS011;51556;50.002;22.014;2024-01-10T07:12:57;185.10;;;55.40;;
65009;SDS011;51556;50.002;22.014;2024-01-10T07:15:22;180.50;;;54.90;;
65009;SDS011;51556;50.002;22.014;2024-01-10T07:17:48;184.40;;;57.30;;
65009;SDS011;51556;50.002;22.014;2024-01-10T07:20:14;178.00;;;59.80;;
65009;SDS011;51556;50.002;22.014;2024-01-10T07:22:41;168.80;;;56.60;;
65009;SDS011;51556;50.002;22.014;2024-01-10T07:25:09;184.70;;;57.80;;
65009;SDS011;51556;50.002;22.014;2024-01-10T07:27:35;196.50;;;60.10;;
65009;SDS011;51556;50.002;22.014;2024-01-10T07:30:05;181.80;;;55.80;;
65009;SDS011;51556;50.002;22.014;2024-01-10T07:32:40;187.20;;;59.50;;
65009;SDS011;51556;50.002;22.014;2024-01-10T07:35:06;188.10;;;58.40;;
65009;SDS011;51556;50.002;22.014;2024-01-10T07:37:35;167.50;;;53.00;;
65009;SDS011;51556;50.002;22.014;2024-01-10T07:40:05;165.90;;;55.30;;
65009;SDS011;51556;50.002;22.014;2024-01-10T07:42:32;122.50;;;42.30;;
65009;SDS011;51556;50.002;22.014;2024-01-10T07:44:58;121.70;;;40.90;;
65009;SDS011;51556;50.002;22.014;2024-01-10T07:47:24;133.40;;;45.40;;
65009;SDS011;51556;50.002;22.014;2024-01-10T07:49:49;124.40;;;38.80;;
65009;SDS011;51556;50.002;22.014;2024-01-10T07:52:15;143.60;;;48.70;;
65009;SDS011;51556;50.002;22.014;2024-01-10T07:54:41;138.20;;;45.40;;
65009;SDS011;51556;50.002;22.014;2024-01-10T07:57:07;156.60;;;50.90;;
65009;SDS011;51556;50.002;22.014;2024-01-10T07:59:32;169.20;;;52.40;;
65009;SDS011;51556;50.002;22.014;2024-01-10T08:01:59;160.40;;;53.60;;
65009;SDS011;51556;50.002;22.014;2024-01-10T08:04:29;132.10;;;45.40;;
65009;SDS011;51556;50.002;22.014;2024-01-10T08:06:54;170.80;;;57.30;;
65009;SDS011;51556;50.002;22.014;2024-01-10T08:09:21;173.50;;;52.50;;
65009;SDS011;51556;50.002;22.014;2024-01-10T08:11:48;156.00;;;52.10;;
65009;SDS011;51556;50.002;22.014;2024-01-10T08:14:14;199.80;;;68.00;;
65009;SDS011;51556;50.002;22.014;2024-01-10T08:16:40;189.30;;;62.80;;
65009;SDS011;51556;50.002;22.014;2024-01-10T08:19:06;203.10;;;65.80;;
65009;SDS011;51556;50.002;22.014;2024-01-10T08:21:32;156.90;;;58.00;;
65009;SDS011;51556;50.002;22.014;2024-01-10T08:23:57;164.50;;;60.00;;
65009;SDS011;51556;50.002;22.014;2024-01-10T08:26:23;180.50;;;56.90;;
65009;SDS011;51556;50.002;22.014;2024-01-10T08:28:48;179.20;;;56.90;;
65009;SDS011;51556;50.002;22.014;2024-01-10T08:31:16;149.10;;;49.90;;
65009;SDS011;51556;50.002;22.014;2024-01-10T08:33:42;171.10;;;57.60;;
65009;SDS011;51556;50.002;22.014;2024-01-10T08:36:07;172.50;;;55.60;;
65009;SDS011;51556;50.002;22.014;2024-01-10T08:38:34;169.70;;;54.40;;
65009;SDS011;51556;50.002;22.014;2024-01-10T08:41:01;181.90;;;56.30;;
65009;SDS011;51556;50.002;22.014;2024-01-10T08:43:27;184.90;;;58.60;;
65009;SDS011;51556;50.002;22.014;2024-01-10T08:45:52;177.90;;;58.90;;
65009;SDS011;51556;50.002;22.014;2024-01-10T08:48:17;162.00;;;55.20;;
65009;SDS011;51556;50.002;22.014;2024-01-10T08:50:43;162.40;;;54.80;;
65009;SDS011;51556;50.002;22.014;2024-01-10T08:53:09;146.20;;;49.90;;
65009;SDS011;51556;50.002;22.014;2024-01-10T08:55:35;167.60;;;53.30;;
65009;SDS011;51556;50.002;22.014;2024-01-10T08:58:02;164.40;;;55.50;;
65009;SDS011;51556;50.002;22.014;2024-01-10T09:00:28;148.30;;;49.70;;
65009;SDS011;51556;50.002;22.014;2024-01-10T09:02:57;154.60;;;53.30;;
65009;SDS011;51556;50.002;22.014;2024-01-10T09:05:22;149.30;;;49.90;;
65009;SDS011;51556;50.002;22.014;2024-01-10T09:07:49;155.20;;;49.50;;
65009;SDS011;51556;50.002;22.014;2024-01-10T09:10:15;141.90;;;49.40;;
65009;SDS011;51556;50.002;22.014;2024-01-10T09:12:41;141.00;;;47.10;;
65009;SDS011;51556;50.002;22.014;2024-01-10T09:15:11;158.40;;;52.80;;
65009;SDS011;51556;50.002;22.014;2024-01-10T09:17:38;145.20;;;46.80;;
65009;SDS011;51556;50.002;22.014;2024-01-10T09:20:04;158.60;;;51.40;;
65009;SDS011;51556;50.002;22.014;2024-01-10T09:22:30;152.20;;;51.40;;
65009;SDS011;51556;50.002;22.014;2024-01-10T09:24:55;141.80;;;50.90;;
65009;SDS011;51556;50.002;22.014;2024-01-10T09:27:21;157.10;;;51.80;;
65009;SDS011;51556;50.002;22.014;2024-01-10T09:29:48;157.20;;;53.80;;
65009;SDS011;51556;50.002;22.014;2024-01-10T09:32:13;193.10;;;65.40;;
65009;SDS011;51556;50.002;22.014;2024-01-10T09:34:39;172.00;;;60.90;;
65009;SDS011;51556;50.002;22.014;2024-01-10T09:37:04;139.00;;;53.20;;
65009;SDS011;51556;50.002;22.014;2024-01-10T09:39:30;131.50;;;47.20;;
65009;SDS011;51556;50.002;22.014;2024-01-10T09:41:56;158.50;;;55.50;;
65009;SDS011;51556;50.002;22.014;2024-01-10T09:44:23;141.80;;;52.50;;
65009;SDS011;51556;50.002;22.014;2024-01-10T09:46:51;174.40;;;57.80;;
65009;SDS011;51556;50.002;22.014;2024-01-10T09:49:17;169.60;;;57.00;;
65009;SDS011;51556;50.002;22.014;2024-01-10T09:51:46;166.80;;;57.40;;
65009;SDS011;51556;50.002;22.014;2024-01-10T09:54:13;189.70;;;61.30;;
65009;SDS011;51556;50.002;22.014;2024-01-10T09:56:41;169.00;;;58.20;;
65009;SDS011;51556;50.002;22.014;2024-01-10T09:59:07;157.60;;;55.10;;
65009;SDS011;51556;50.002;22.014;2024-01-10T10:01:38;180.60;;;63.30;;
65009;SDS011;51556;50.002;22.014;2024-01-10T10:04:04;169.90;;;60.10;;
65009;SDS011;51556;50.002;22.014;2024-01-10T10:06:33;180.10;;;67.30;;
65009;SDS011;51556;50.002;22.014;2024-01-10T10:08:59;181.90;;;66.30;;
65009;SDS011;51556;50.002;22.014;2024-01-10T10:11:25;168.80;;;63.80;;
65009;SDS011;51556;50.002;22.014;2024-01-10T10:13:50;172.30;;;62.60;;
65009;SDS011;51556;50.002;22.014;2024-01-10T10:16:22;158.00;;;51.50;;
65009;SDS011;51556;50.002;22.014;2024-01-10T10:18:52;181.10;;;63.00;;
65009;SDS011;51556;50.002;22.014;2024-01-10T10:21:24;179.20;;;62.40;;
65009;SDS011;51556;50.002;22.014;2024-01-10T10:24:00;161.50;;;62.70;;
65009;SDS011;51556;50.002;22.014;2024-01-10T10:26:28;159.10;;;62.50;;
65009;SDS011;51556;50.002;22.014;2024-01-10T10:28:57;150.80;;;56.00;;
65009;SDS011;51556;50.002;22.014;2024-01-10T10:31:23;163.70;;;59.00;;
65009;SDS011;51556;50.002;22.014;2024-01-10T10:33:49;167.20;;;62.70;;
65009;SDS011;51556;50.002;22.014;2024-01-10T10:36:16;164.50;;;60.90;;
65009;SDS011;51556;50.002;22.014;2024-01-10T10:38:42;165.70;;;60.40;;
65009;SDS011;51556;50.002;22.014;2024-01-10T10:41:08;161.80;;;57.50;;
65009;SDS011;51556;50.002;22.014;2024-01-10T10:43:35;164.70;;;59.20;;
65009;SDS011;51556;50.002;22.014;2024-01-10T10:46:03;147.10;;;54.20;;
65009;SDS011;51556;50.002;22.014;2024-01-10T10:48:32;152.70;;;52.70;;
65009;SDS011;51556;50.002;22.014;2024-01-10T10:51:03;155.30;;;54.70;;
65009;SDS011;51556;50.002;22.014;2024-01-10T10:53:38;155.30;;;57.00;;
65009;SDS011;51556;50.002;22.014;2024-01-10T10:56:05;145.10;;;54.00;;
65009;SDS011;51556;50.002;22.014;2024-01-10T10:58:37;136.00;;;50.20;;
65009;SDS011;51556;50.002;22.014;2024-01-10T11:01:05;140.00;;;51.80;;
65009;SDS011;51556;50.002;22.014;2024-01-10T11:03:33;144.90;;;53.80;;
65009;SDS011;51556;50.002;22.014;2024-01-10T11:06:05;125.20;;;45.30;;
65009;SDS011;51556;50.002;22.014;2024-01-10T11:16:57;117.60;;;46.00;;
65009;SDS011;51556;50.002;22.014;2024-01-10T11:24:50;127.50;;;46.80;;
65009;SDS011;51556;50.002;22.014;2024-01-10T11:27:15;129.30;;;47.30;;
65009;SDS011;51556;50.002;22.014;2024-01-10T11:29:42;107.40;;;41.40;;
65009;SDS011;51556;50.002;22.014;2024-01-10T11:32:14;133.20;;;50.40;;
65009;SDS011;51556;50.002;22.014;2024-01-10T11:34:52;130.40;;;46.90;;
65009;SDS011;51556;50.002;22.014;2024-01-10T11:37:23;121.20;;;44.40;;
65009;SDS011;51556;50.002;22.014;2024-01-10T11:39:54;121.70;;;46.40;;
65009;SDS011;51556;50.002;22.014;2024-01-10T11:42:23;128.70;;;45.90;;
65009;SDS011;51556;50.002;22.014;2024-01-10T11:45:05;133.10;;;49.00;;
65009;SDS011;51556;50.002;22.014;2024-01-10T11:47:31;114.70;;;45.60;;
65009;SDS011;51556;50.002;22.014;2024-01-10T11:49:57;129.20;;;47.80;;
65009;SDS011;51556;50.002;22.014;2024-01-10T11:52:23;126.50;;;47.40;;
65009;SDS011;51556;50.002;22.014;2024-01-10T11:54:57;135.30;;;52.10;;
65009;SDS011;51556;50.002;22.014;2024-01-10T11:57:26;143.50;;;54.20;;
65009;SDS011;51556;50.002;22.014;2024-01-10T11:59:54;128.30;;;50.70;;
65009;SDS011;51556;50.002;22.014;2024-01-10T12:02:21;112.00;;;46.60;;
65009;SDS011;51556;50.002;22.014;2024-01-10T12:04:50;131.40;;;53.20;;
65009;SDS011;51556;50.002;22.014;2024-01-10T12:07:16;141.60;;;53.90;;
65009;SDS011;51556;50.002;22.014;2024-01-10T12:09:43;141.60;;;53.90;;
65009;SDS011;51556;50.002;22.014;2024-01-10T12:12:09;147.20;;;55.30;;
65009;SDS011;51556;50.002;22.014;2024-01-10T12:14:36;122.20;;;48.70;;
65009;SDS011;51556;50.002;22.014;2024-01-10T12:17:02;142.70;;;53.00;;
65009;SDS011;51556;50.002;22.014;2024-01-10T12:19:29;144.20;;;54.00;;
65009;SDS011;51556;50.002;22.014;2024-01-10T12:21:55;138.90;;;54.30;;
65009;SDS011;51556;50.002;22.014;2024-01-10T12:24:20;130.00;;;51.10;;
65009;SDS011;51556;50.002;22.014;2024-01-10T12:26:47;125.40;;;47.90;;
65009;SDS011;51556;50.002;22.014;2024-01-10T12:29:13;131.60;;;52.30;;
65009;SDS011;51556;50.002;22.014;2024-01-10T12:31:38;144.30;;;54.20;;
65009;SDS011;51556;50.002;22.014;2024-01-10T12:34:06;138.70;;;57.00;;
65009;SDS011;51556;50.002;22.014;2024-01-10T12:36:34;129.00;;;50.40;;
65009;SDS011;51556;50.002;22.014;2024-01-10T12:38:59;136.50;;;50.10;;
65009;SDS011;51556;50.002;22.014;2024-01-10T12:41:25;135.00;;;55.70;;
65009;SDS011;51556;50.002;22.014;2024-01-10T12:43:55;128.00;;;50.50;;
65009;SDS011;51556;50.002;22.014;2024-01-10T12:46:21;136.00;;;53.00;;
65009;SDS011;51556;50.002;22.014;2024-01-10T12:48:57;126.70;;;50.60;;
65009;SDS011;51556;50.002;22.014;2024-01-10T12:51:26;137.50;;;54.60;;
65009;SDS011;51556;50.002;22.014;2024-01-10T12:53:55;155.60;;;56.80;;
65009;SDS011;51556;50.002;22.014;2024-01-10T12:56:21;130.50;;;51.50;;
65009;SDS011;51556;50.002;22.014;2024-01-10T12:58:47;135.30;;;52.20;;
65009;SDS011;51556;50.002;22.014;2024-01-10T13:01:12;125.80;;;48.20;;
65009;SDS011;51556;50.002;22.014;2024-01-10T13:03:38;134.20;;;51.80;;
65009;SDS011;51556;50.002;22.014;2024-01-10T13:06:05;144.40;;;55.80;;
65009;SDS011;51556;50.002;22.014;2024-01-10T13:08:30;110.50;;;44.00;;
65009;SDS011;51556;50.002;22.014;2024-01-10T13:10:57;124.60;;;50.40;;
65009;SDS011;51556;50.002;22.014;2024-01-10T13:13:24;128.00;;;52.60;;
65009;SDS011;51556;50.002;22.014;2024-01-10T13:15:50;138.80;;;56.00;;
65009;SDS011;51556;50.002;22.014;2024-01-10T13:18:16;134.20;;;51.70;;
65009;SDS011;51556;50.002;22.014;2024-01-10T13:20:43;148.70;;;53.80;;
65009;SDS011;51556;50.002;22.014;2024-01-10T13:23:08;143.30;;;54.30;;
65009;SDS011;51556;50.002;22.014;2024-01-10T13:25:34;132.40;;;53.10;;
65009;SDS011;51556;50.002;22.014;2024-01-10T13:28:02;137.90;;;56.80;;
65009;SDS011;51556;50.002;22.014;2024-01-10T13:30:30;194.60;;;68.90;;
65009;SDS011;51556;50.002;22.014;2024-01-10T13:32:55;154.90;;;57.50;;
65009;SDS011;51556;50.002;22.014;2024-01-10T13:35:23;146.30;;;54.00;;
65009;SDS011;51556;50.002;22.014;2024-01-10T13:37:49;143.50;;;52.90;;
65009;SDS011;51556;50.002;22.014;2024-01-10T13:40:14;124.30;;;50.90;;
65009;SDS011;51556;50.002;22.014;2024-01-10T13:42:43;123.60;;;50.80;;
65009;SDS011;51556;50.002;22.014;2024-01-10T13:45:09;130.50;;;52.20;;
65009;SDS011;51556;50.002;22.014;2024-01-10T13:47:38;127.70;;;50.50;;
65009;SDS011;51556;50.002;22.014;2024-01-10T13:50:07;125.70;;;51.00;;
65009;SDS011;51556;50.002;22.014;2024-01-10T13:52:34;110.60;;;44.70;;
65009;SDS011;51556;50.002;22.014;2024-01-10T13:55:01;131.30;;;51.30;;
65009;SDS011;51556;50.002;22.014;2024-01-10T13:57:29;126.30;;;50.80;;
65009;SDS011;51556;50.002;22.014;2024-01-10T13:59:55;121.10;;;50.70;;
65009;SDS011;51556;50.002;22.014;2024-01-10T14:02:24;140.10;;;55.30;;
65009;SDS011;51556;50.002;22.014;2024-01-10T14:04:52;136.90;;;53.90;;